Time;durP1;ratioP1;P1;durP2;ratioP2;P2;SDS_P1;SDS_P2;PMS_P1;PMS_P2;Temp;Humidity;BMP_temperature;BMP_pressure;BME280_temperature;BME280_humidity;BME280_pressure;Samples;Min_cycle;Max_cycle;Signal;HPM_P1;HPM_P2
2023/12/18 00:03:50;;;;;;;281.33;20.13;;;;;1.50;98108.00;;;;8337772;28;20859;-82
2023/12/18 00:07:55;;;;;;;190.80;17.47;;;;;1.50;98106.00;;;;8336409;28;20223;-81
2023/12/18 00:11:58;;;;;;;202.07;18.17;;;;;1.50;98106.00;;;;8336012;28;20238;-81
2023/12/18 00:16:02;;;;;;;296.83;22.03;;;;;1.50;98102.00;;;;8336961;28;20208;-81
2023/12/18 00:20:06;;;;;;;181.37;18.50;;;;;1.50;98094.00;;;;8336099;28;20200;-81
2023/12/18 00:24:10;;;;;;;221.07;19.07;;;;;1.50;98088.00;;;;8335546;28;20201;-81
2023/12/18 00:28:14;;;;;;;160.37;15.97;;;;;1.50;98092.00;;;;8335731;28;20230;-81
2023/12/18 00:32:17;;;;;;;309.70;23.10;;;;;1.40;98091.00;;;;8336846;28;20225;-81
2023/12/18 00:36:20;;;;;;;341.73;23.40;;;;;1.40;98097.00;;;;8335781;28;20226;-81
2023/12/18 00:40:25;;;;;;;131.97;15.10;;;;;1.40;98086.00;;;;8335176;28;20193;-81
2023/12/18 00:44:28;;;;;;;113.20;15.77;;;;;1.40;98089.00;;;;8336430;28;20326;-81
2023/12/18 00:48:31;;;;;;;95.27;14.63;;;;;1.40;98077.00;;;;8335710;28;20312;-81
2023/12/18 00:52:34;;;;;;;62.60;13.77;;;;;1.30;98075.00;;;;8335583;28;20295;-81
2023/12/18 00:56:39;;;;;;;104.57;14.67;;;;;1.30;98081.00;;;;8335153;28;20278;-82
2023/12/18 01:00:42;;;;;;;132.73;16.70;;;;;1.20;98076.00;;;;8335814;28;20732;-81
2023/12/18 01:04:46;;;;;;;148.30;18.30;;;;;1.20;98078.00;;;;8336416;28;20559;-81
2023/12/18 01:08:49;;;;;;;132.33;17.87;;;;;1.20;98080.00;;;;8335363;28;20683;-82
2023/12/18 01:12:53;;;;;;;106.57;15.73;;;;;1.20;98071.00;;;;8335180;28;20622;-81
2023/12/18 01:16:56;;;;;;;130.30;17.57;;;;;1.10;98084.00;;;;8334865;28;20206;-81
2023/12/18 01:20:59;;;;;;;115.80;17.97;;;;;1.20;98076.00;;;;8332015;28;20193;-80
2023/12/18 01:25:04;;;;;;;95.83;17.33;;;;;1.20;98069.00;;;;8334455;28;20196;-80
2023/12/18 01:29:08;;;;;;;100.70;17.40;;;;;1.30;98066.00;;;;8334913;28;20230;-80
2023/12/18 01:33:11;;;;;;;258.50;22.40;;;;;1.30;98073.00;;;;8333700;28;20230;-80
2023/12/18 01:37:14;;;;;;;123.70;17.80;;;;;1.30;98063.00;;;;8332434;28;20585;-80
2023/12/18 01:41:18;;;;;;;109.67;19.13;;;;;1.30;98059.00;;;;8333408;28;20290;-80
2023/12/18 01:45:22;;;;;;;246.20;27.97;;;;;1.40;98063.00;;;;8333949;28;20207;-80
2023/12/18 01:49:25;;;;;;;191.63;22.43;;;;;1.40;98061.00;;;;8333821;28;20224;-80
2023/12/18 01:53:32;;;;;;;120.90;19.20;;;;;1.40;98058.00;;;;8332808;28;20195;-80
2023/12/18 01:57:36;;;;;;;76.47;16.50;;;;;1.40;98048.00;;;;8333230;28;20689;-80
2023/12/18 02:01:43;;;;;;;162.80;18.83;;;;;1.40;98052.00;;;;8333428;28;20211;-79
2023/12/18 02:05:47;;;;;;;85.17;17.00;;;;;1.40;98048.00;;;;8333113;28;20238;-79
2023/12/18 02:09:50;;;;;;;72.43;17.07;;;;;1.40;98045.00;;;;8333360;28;20259;-79
2023/12/18 02:13:53;;;;;;;74.27;17.43;;;;;1.40;98045.00;;;;8332838;28;20299;-79
2023/12/18 02:17:58;;;;;;;56.80;16.30;;;;;1.40;98043.00;;;;8332502;28;20286;-79
2023/12/18 02:22:01;;;;;;;92.60;17.30;;;;;1.50;98046.00;;;;8332537;28;20191;-80
2023/12/18 02:26:06;;;;;;;134.60;20.87;;;;;1.50;98036.00;;;;8332717;28;20287;-79
2023/12/18 02:30:14;;;;;;;125.13;18.30;;;;;1.50;98044.00;;;;8333783;28;20652;-79
2023/12/18 02:34:17;;;;;;;93.83;18.27;;;;;1.50;98043.00;;;;8333494;28;20196;-79
2023/12/18 02:38:20;;;;;;;118.07;18.67;;;;;1.50;98041.00;;;;8332644;28;20292;-79
2023/12/18 02:42:25;;;;;;;117.97;16.63;;;;;1.50;98034.00;;;;8331851;28;20196;-78
2023/12/18 02:46:28;;;;;;;137.20;20.07;;;;;1.50;98027.00;;;;8332697;28;20226;-80
2023/12/18 02:50:31;;;;;;;128.47;19.23;;;;;1.50;98024.00;;;;8331735;28;20234;-79
2023/12/18 02:54:38;;;;;;;102.23;19.00;;;;;1.50;98021.00;;;;8331808;28;20643;-79
2023/12/18 02:58:42;;;;;;;198.90;21.83;;;;;1.50;98017.00;;;;8333355;28;20623;-79
2023/12/18 03:02:45;;;;;;;143.00;19.70;;;;;1.50;98013.00;;;;8337492;22;20365;-79
2023/12/18 03:06:49;;;;;;;156.27;20.50;;;;;1.50;98010.00;;;;8272887;28;20224;-79
2023/12/18 03:10:52;;;;;;;192.43;22.63;;;;;1.50;98017.00;;;;8290314;28;20301;-78
2023/12/18 03:14:57;;;;;;;116.37;19.63;;;;;1.50;98007.00;;;;8288063;28;20203;-77
2023/12/18 03:19:00;;;;;;;146.23;20.27;;;;;1.50;98010.00;;;;8291724;28;20212;-77
2023/12/18 03:23:04;;;;;;;146.90;21.30;;;;;1.50;98005.00;;;;8276222;28;20655;-77
2023/12/18 03:27:07;;;;;;;165.10;21.80;;;;;1.50;98005.00;;;;8291607;28;20308;-77
2023/12/18 03:31:14;;;;;;;131.60;19.00;;;;;1.50;98003.00;;;;8285961;28;20223;-77
2023/12/18 03:35:17;;;;;;;153.87;21.47;;;;;1.50;98007.00;;;;8287947;28;20631;-77
2023/12/18 03:39:20;;;;;;;192.00;23.40;;;;;1.50;98003.00;;;;8296296;28;20201;-77
2023/12/18 03:43:24;;;;;;;139.80;20.23;;;;;1.50;98007.00;;;;8292997;28;20200;-77
2023/12/18 03:47:28;;;;;;;113.53;20.47;;;;;1.50;98005.00;;;;8287949;28;20327;-77
2023/12/18 03:51:32;;;;;;;116.87;19.43;;;;;1.50;98004.00;;;;8289987;28;20609;-77
2023/12/18 03:55:36;;;;;;;187.00;22.43;;;;;1.50;98000.00;;;;8293120;28;20207;-77
2023/12/18 03:59:39;;;;;;;157.63;22.17;;;;;1.60;97997.00;;;;8289892;28;20927;-77
2023/12/18 04:03:43;;;;;;;178.53;23.67;;;;;1.60;97990.00;;;;8289102;28;20239;-77
2023/12/18 04:07:47;;;;;;;102.17;19.70;;;;;1.60;97995.00;;;;8290745;28;20582;-77
2023/12/18 04:11:50;;;;;;;109.93;18.77;;;;;1.60;97993.00;;;;8293182;28;20204;-77
2023/12/18 04:15:53;;;;;;;80.63;19.07;;;;;1.60;98002.00;;;;8288663;28;20281;-77
2023/12/18 04:20:02;;;;;;;172.93;21.03;;;;;1.60;97995.00;;;;8292690;28;20216;-78
2023/12/18 04:24:06;;;;;;;89.93;18.07;;;;;1.60;97989.00;;;;8294504;28;20197;-76
2023/12/18 04:28:09;;;;;;;135.90;20.93;;;;;1.60;97995.00;;;;8289462;28;20219;-78
2023/12/18 04:32:12;;;;;;;151.63;21.03;;;;;1.60;97989.00;;;;8293255;28;20285;-78
2023/12/18 04:36:17;;;;;;;126.83;21.27;;;;;1.70;97984.00;;;;8296081;28;20212;-78
2023/12/18 04:40:20;;;;;;;131.10;21.03;;;;;1.70;97978.00;;;;8287876;28;20201;-77
2023/12/18 04:44:23;;;;;;;96.40;19.23;;;;;1.70;97978.00;;;;8292396;28;20296;-77
2023/12/18 04:48:26;;;;;;;125.93;19.07;;;;;1.60;97980.00;;;;8292012;28;20671;-79
2023/12/18 04:52:31;;;;;;;192.13;23.13;;;;;1.60;97979.00;;;;8290834;28;20204;-79
2023/12/18 04:56:34;;;;;;;99.87;18.13;;;;;1.70;97977.00;;;;8288403;28;20260;-78
2023/12/18 05:00:37;;;;;;;118.53;20.30;;;;;1.60;97974.00;;;;8294696;28;20601;-77
2023/12/18 05:04:40;;;;;;;66.97;17.20;;;;;1.60;97972.00;;;;8292998;28;20240;-78
2023/12/18 05:08:45;;;;;;;79.80;19.63;;;;;1.60;97982.00;;;;8284667;28;20331;-77
2023/12/18 05:12:48;;;;;;;111.30;20.00;;;;;1.60;97992.00;;;;8285864;28;21001;-78
2023/12/18 05:16:51;;;;;;;76.17;19.13;;;;;1.60;97981.00;;;;8288242;28;20197;-80
2023/12/18 05:20:57;;;;;;;101.17;19.03;;;;;1.60;97981.00;;;;8265804;28;21129;-80
2023/12/18 05:25:02;;;;;;;101.73;20.77;;;;;1.60;97999.00;;;;8262159;28;20764;-80
2023/12/18 05:29:05;;;;;;;77.53;18.17;;;;;1.60;97994.00;;;;8234703;28;21048;-80
2023/12/18 05:33:11;;;;;;;64.37;17.77;;;;;1.60;97993.00;;;;8279692;28;20194;-80
2023/12/18 05:37:14;;;;;;;113.87;20.27;;;;;1.70;97997.00;;;;8284940;28;20200;-80
2023/12/18 05:41:19;;;;;;;80.73;18.50;;;;;1.60;97989.00;;;;8288116;28;20282;-79
2023/12/18 05:45:22;;;;;;;73.37;18.40;;;;;1.60;97979.00;;;;8289312;28;20218;-80
2023/12/18 05:49:25;;;;;;;113.43;18.40;;;;;1.60;97980.00;;;;8281926;28;20277;-80
2023/12/18 05:53:28;;;;;;;95.10;22.57;;;;;1.60;97991.00;;;;8289591;28;20195;-79
2023/12/18 05:57:33;;;;;;;119.87;20.07;;;;;1.60;97990.00;;;;8286388;28;20996;-79
2023/12/18 06:01:36;;;;;;;86.93;19.57;;;;;1.60;97991.00;;;;8283842;28;20720;-79
2023/12/18 06:05:39;;;;;;;82.80;17.63;;;;;1.60;97985.00;;;;8277897;28;20197;-79
2023/12/18 06:09:42;;;;;;;98.33;19.47;;;;;1.60;97984.00;;;;8280758;28;20298;-78
2023/12/18 06:13:47;;;;;;;92.23;18.30;;;;;1.60;97979.00;;;;8278477;28;20199;-78
2023/12/18 06:17:50;;;;;;;176.53;21.83;;;;;1.60;97985.00;;;;8280488;28;20224;-78
2023/12/18 06:21:53;;;;;;;158.10;24.17;;;;;1.60;97984.00;;;;8265140;28;20233;-79
2023/12/18 06:25:56;;;;;;;98.67;19.23;;;;;1.60;97982.00;;;;8280875;28;20259;-79
2023/12/18 06:30:06;;;;;;;127.23;21.47;;;;;1.60;97976.00;;;;8278256;28;20231;-78
2023/12/18 06:34:10;;;;;;;96.00;19.03;;;;;1.60;97974.00;;;;8282934;28;20208;-78
2023/12/18 06:38:13;;;;;;;95.00;20.53;;;;;1.60;97981.00;;;;8281764;28;20256;-78
2023/12/18 06:42:17;;;;;;;95.07;18.37;;;;;1.60;97981.00;;;;8282038;28;20202;-79
2023/12/18 06:46:21;;;;;;;349.77;29.57;;;;;1.50;97987.00;;;;8283429;28;20831;-78
2023/12/18 06:50:24;;;;;;;99.47;17.70;;;;;1.50;97985.00;;;;8284132;28;20241;-79
2023/12/18 06:54:27;;;;;;;130.63;17.20;;;;;1.50;97981.00;;;;8281159;28;20207;-79
2023/12/18 06:58:31;;;;;;;145.47;22.60;;;;;1.50;97988.00;;;;8284694;28;20202;-78
2023/12/18 07:02:35;;;;;;;240.13;22.43;;;;;1.50;97994.00;;;;8277394;28;20316;-79
2023/12/18 07:06:39;;;;;;;204.43;22.33;;;;;1.50;97988.00;;;;8254806;28;20207;-79
2023/12/18 07:10:42;;;;;;;185.93;23.80;;;;;1.50;97989.00;;;;8245320;28;20350;-78
2023/12/18 07:14:45;;;;;;;165.03;22.63;;;;;1.60;97999.00;;;;8251234;28;20209;-79
2023/12/18 07:18:50;;;;;;;238.47;22.43;;;;;1.60;97998.00;;;;8248879;28;20320;-79
2023/12/18 07:22:53;;;;;;;234.83;21.30;;;;;1.60;97998.00;;;;8244709;28;20408;-76
2023/12/18 07:26:56;;;;;;;257.70;23.77;;;;;1.50;97989.00;;;;8250346;28;20295;-78
2023/12/18 07:30:59;;;;;;;128.20;21.77;;;;;1.60;97995.00;;;;8246177;28;20311;-79
2023/12/18 07:35:05;;;;;;;261.83;25.30;;;;;1.60;98004.00;;;;8248015;28;20221;-78
2023/12/18 07:39:09;;;;;;;171.10;19.30;;;;;1.50;97999.00;;;;8244656;28;20288;-78
2023/12/18 07:43:12;;;;;;;256.47;26.60;;;;;1.50;98001.00;;;;8244859;28;20266;-78
2023/12/18 07:47:15;;;;;;;117.60;18.23;;;;;1.50;98003.00;;;;8252605;28;20746;-78
2023/12/18 07:51:20;;;;;;;147.43;20.10;;;;;1.40;98013.00;;;;8245591;28;20316;-78
2023/12/18 07:55:23;;;;;;;92.73;18.50;;;;;1.50;98023.00;;;;8247186;28;20197;-77
2023/12/18 07:59:26;;;;;;;62.50;18.27;;;;;1.60;98017.00;;;;8246175;28;20556;-79
2023/12/18 08:03:29;;;;;;;72.43;17.67;;;;;1.60;98003.00;;;;8262374;28;20234;-78
2023/12/18 08:07:34;;;;;;;92.97;17.73;;;;;1.60;97999.00;;;;8284135;28;20240;-78
2023/12/18 08:11:38;;;;;;;62.73;16.20;;;;;1.60;98005.00;;;;8280626;28;20227;-77
2023/12/18 08:15:41;;;;;;;78.57;17.77;;;;;1.60;98007.00;;;;8286258;28;20297;-78
2023/12/18 08:19:47;;;;;;;222.60;22.23;;;;;1.60;98021.00;;;;8288436;28;20744;-78
2023/12/18 08:23:52;;;;;;;127.70;18.63;;;;;1.60;98008.00;;;;8287465;28;20299;-77
2023/12/18 08:27:55;;;;;;;66.13;19.17;;;;;1.60;98012.00;;;;8286392;28;20243;-80
2023/12/18 08:31:58;;;;;;;106.50;20.20;;;;;1.60;98023.00;;;;8281510;28;20238;-77
2023/12/18 08:36:01;;;;;;;122.87;19.77;;;;;1.80;98025.00;;;;8282751;28;20497;-78
2023/12/18 08:40:07;;;;;;;77.07;18.20;;;;;1.90;98023.00;;;;8283789;28;20201;-79
2023/12/18 08:44:11;;;;;;;149.43;20.17;;;;;1.90;98011.00;;;;8285153;28;20240;-79
2023/12/18 08:48:15;;;;;;;139.87;21.27;;;;;1.90;98007.00;;;;8284187;28;20775;-79
2023/12/18 08:52:20;;;;;;;126.60;20.60;;;;;2.00;98015.00;;;;8284889;28;20620;-78
2023/12/18 08:56:25;;;;;;;78.57;19.23;;;;;2.10;98008.00;;;;8281088;28;20226;-78
2023/12/18 09:00:28;;;;;;;92.40;17.87;;;;;2.00;98017.00;;;;8283676;28;20201;-79
2023/12/18 09:04:31;;;;;;;217.83;65.27;;;;;2.00;98009.00;;;;8282110;28;20582;-80
2023/12/18 09:08:39;;;;;;;153.60;41.37;;;;;2.00;98022.00;;;;8277885;28;20292;-78
2023/12/18 09:12:44;;;;;;;165.27;49.30;;;;;2.20;98017.00;;;;8282189;28;20203;-77
2023/12/18 09:16:49;;;;;;;106.23;40.43;;;;;2.30;98022.00;;;;8282905;28;20225;-77
2023/12/18 09:20:52;;;;;;;55.33;19.10;;;;;2.30;98014.00;;;;8279546;28;20320;-76
2023/12/18 09:24:55;;;;;;;113.47;23.07;;;;;2.30;98004.00;;;;8280555;28;20204;-76
2023/12/18 09:28:59;;;;;;;82.67;34.50;;;;;2.40;97990.00;;;;8281409;28;20230;-78
2023/12/18 09:33:03;;;;;;;87.27;34.43;;;;;2.40;97981.00;;;;8280947;28;20205;-77
2023/12/18 09:37:07;;;;;;;155.93;88.70;;;;;2.40;97984.00;;;;8278684;28;20223;-77
2023/12/18 09:41:10;;;;;;;86.40;21.60;;;;;2.40;97972.00;;;;8281305;28;20215;-78
2023/12/18 09:45:16;;;;;;;96.90;37.07;;;;;2.50;97995.00;;;;8278922;28;20816;-76
2023/12/18 09:49:20;;;;;;;65.33;20.37;;;;;2.70;97990.00;;;;8278750;28;20237;-78
2023/12/18 09:53:24;;;;;;;116.50;43.87;;;;;2.80;97987.00;;;;8279377;28;20200;-79
2023/12/18 09:57:27;;;;;;;204.27;53.20;;;;;2.80;97987.00;;;;8280156;28;20768;-78
2023/12/18 10:01:33;;;;;;;117.13;30.13;;;;;2.90;97990.00;;;;8270834;28;20217;-78
2023/12/18 10:05:36;;;;;;;80.27;20.73;;;;;3.00;97986.00;;;;8268890;28;20283;-77
2023/12/18 10:09:40;;;;;;;71.83;18.23;;;;;3.00;97985.00;;;;8274453;28;20275;-80
2023/12/18 10:13:43;;;;;;;76.80;19.87;;;;;3.10;97977.00;;;;8279229;28;20300;-78
2023/12/18 10:17:48;;;;;;;69.10;19.13;;;;;3.20;97972.00;;;;8277856;28;20260;-79
2023/12/18 10:21:52;;;;;;;87.63;25.93;;;;;3.30;97975.00;;;;8280692;28;20281;-79
2023/12/18 10:25:55;;;;;;;65.87;21.53;;;;;3.40;97972.00;;;;8280681;28;20208;-79
2023/12/18 10:29:58;;;;;;;64.57;20.07;;;;;3.50;97978.00;;;;8283150;28;20318;-81
2023/12/18 10:34:05;;;;;;;65.10;18.77;;;;;3.50;97977.00;;;;8278978;28;20256;-79
2023/12/18 10:38:10;;;;;;;118.80;57.27;;;;;3.60;97975.00;;;;8281547;28;20628;-79
2023/12/18 10:42:20;;;;;;;80.67;27.57;;;;;3.70;97962.00;;;;8280712;28;20201;-79
2023/12/18 10:46:27;;;;;;;69.17;22.90;;;;;3.70;97959.00;;;;8277295;28;20209;-78
2023/12/18 10:50:35;;;;;;;66.40;21.47;;;;;3.70;97964.00;;;;8277401;28;20253;-80
2023/12/18 10:54:39;;;;;;;63.50;19.30;;;;;3.70;97949.00;;;;8271820;28;20332;-79
2023/12/18 10:58:45;;;;;;;69.53;21.93;;;;;3.80;97954.00;;;;8276097;28;20202;-79
2023/12/18 11:02:50;;;;;;;70.73;19.87;;;;;3.90;97945.00;;;;8276664;28;20750;-80
2023/12/18 11:06:56;;;;;;;79.30;27.03;;;;;3.90;97942.00;;;;8275814;28;20213;-80
2023/12/18 11:11:01;;;;;;;89.53;22.63;;;;;4.00;97944.00;;;;8275164;28;20702;-80
2023/12/18 11:15:13;;;;;;;89.60;25.50;;;;;4.00;97929.00;;;;8277934;28;20313;-80
2023/12/18 11:19:25;;;;;;;79.27;23.20;;;;;4.00;97917.00;;;;8278821;28;20203;-80
2023/12/18 11:23:38;;;;;;;114.20;41.63;;;;;4.10;97911.00;;;;8280680;28;20588;-82
2023/12/18 11:27:42;;;;;;;151.50;28.90;;;;;3.90;97908.00;;;;8276528;28;20231;-82
2023/12/18 11:31:48;;;;;;;144.07;22.70;;;;;4.00;97899.00;;;;8278788;28;20822;-81
2023/12/18 11:35:51;;;;;;;108.37;22.30;;;;;4.00;97888.00;;;;8278250;28;20213;-81
2023/12/18 11:39:57;;;;;;;105.63;24.20;;;;;4.00;97882.00;;;;8278348;28;20798;-81
2023/12/18 11:44:07;;;;;;;100.93;22.63;;;;;4.00;97884.00;;;;8275777;28;20211;-81
2023/12/18 11:48:16;;;;;;;83.27;22.23;;;;;4.10;97880.00;;;;8274313;28;20248;-81
2023/12/18 11:52:21;;;;;;;80.20;20.00;;;;;4.10;97885.00;;;;8275976;28;20706;-82
2023/12/18 11:56:28;;;;;;;105.60;22.43;;;;;4.10;97885.00;;;;8280552;28;20229;-81
2023/12/18 12:00:32;;;;;;;97.00;22.43;;;;;4.30;97874.00;;;;8282140;28;20206;-82
2023/12/18 12:04:36;;;;;;;142.80;24.87;;;;;4.30;97875.00;;;;8285127;28;20228;-80
2023/12/18 12:08:44;;;;;;;104.37;22.70;;;;;4.30;97869.00;;;;8281259;28;20213;-80
2023/12/18 12:12:55;;;;;;;82.10;22.20;;;;;4.20;97860.00;;;;8281569;28;20706;-81
2023/12/18 12:17:03;;;;;;;102.50;23.47;;;;;4.20;97861.00;;;;8282814;28;20193;-81
2023/12/18 12:21:06;;;;;;;108.17;23.47;;;;;4.20;97860.00;;;;8277664;28;20566;-78
2023/12/18 12:25:09;;;;;;;156.87;26.50;;;;;4.30;97846.00;;;;8268609;28;20205;-77
2023/12/18 12:29:16;;;;;;;135.47;23.10;;;;;4.30;97851.00;;;;8268513;28;20206;-77
2023/12/18 12:33:19;;;;;;;110.90;23.27;;;;;4.40;97846.00;;;;8273079;28;20229;-78
2023/12/18 12:37:23;;;;;;;105.73;23.20;;;;;4.40;97847.00;;;;8267836;28;20206;-77
2023/12/18 12:41:26;;;;;;;120.40;28.33;;;;;4.40;97852.00;;;;8281339;28;20238;-77
2023/12/18 12:45:31;;;;;;;229.10;33.07;;;;;4.30;97851.00;;;;8276336;28;20298;-77
2023/12/18 12:49:36;;;;;;;197.77;23.17;;;;;4.40;97846.00;;;;8264869;28;20285;-77
2023/12/18 12:53:40;;;;;;;149.90;26.80;;;;;4.40;97852.00;;;;8243400;28;20260;-76
2023/12/18 12:57:43;;;;;;;126.20;28.57;;;;;4.40;97843.00;;;;8279107;28;20716;-76
2023/12/18 13:01:48;;;;;;;233.60;23.93;;;;;4.30;97828.00;;;;8278689;28;20265;-77
2023/12/18 13:05:52;;;;;;;166.97;25.40;;;;;4.20;97820.00;;;;8274705;28;20237;-77
2023/12/18 13:09:55;;;;;;;158.70;24.37;;;;;4.20;97821.00;;;;8275226;28;20284;-76
2023/12/18 13:13:58;;;;;;;143.97;26.47;;;;;4.20;97828.00;;;;8273615;28;20234;-76
2023/12/18 13:18:18;;;;;;;138.17;29.53;;;;;4.10;97837.00;;;;8273858;28;20202;-75
2023/12/18 13:22:22;;;;;;;159.53;25.03;;;;;4.10;97826.00;;;;8280497;28;20209;-75
2023/12/18 13:26:25;;;;;;;189.83;22.90;;;;;4.10;97824.00;;;;8269608;28;20365;-76
2023/12/18 13:30:28;;;;;;;153.80;23.47;;;;;4.10;97818.00;;;;8267475;28;20305;-76
2023/12/18 13:34:34;;;;;;;117.30;21.87;;;;;4.10;97815.00;;;;8269571;28;20628;-76
2023/12/18 13:38:37;;;;;;;93.30;20.23;;;;;4.00;97815.00;;;;8272586;28;20209;-76
2023/12/18 13:42:40;;;;;;;88.87;20.97;;;;;3.90;97812.00;;;;8277667;28;20202;-75
2023/12/18 13:46:44;;;;;;;189.57;24.27;;;;;3.90;97802.00;;;;8277473;28;20740;-76
2023/12/18 13:50:48;;;;;;;169.83;23.80;;;;;3.90;97803.00;;;;8276728;28;20375;-76
2023/12/18 13:54:52;;;;;;;505.50;34.77;;;;;3.90;97812.00;;;;8282063;28;20965;-76
2023/12/18 13:58:55;;;;;;;138.07;21.63;;;;;3.80;97800.00;;;;8280224;28;20208;-75
2023/12/18 14:03:00;;;;;;;157.97;22.57;;;;;3.70;97803.00;;;;8279719;28;20727;-76
2023/12/18 14:07:05;;;;;;;236.87;25.27;;;;;3.70;97804.00;;;;8277328;28;20208;-75
2023/12/18 14:11:09;;;;;;;323.07;28.33;;;;;3.70;97808.00;;;;8276890;28;20222;-75
2023/12/18 14:15:12;;;;;;;158.40;21.60;;;;;3.70;97800.00;;;;8280450;28;21058;-75
2023/12/18 14:19:16;;;;;;;222.87;26.60;;;;;3.60;97806.00;;;;8273528;28;20197;-75
2023/12/18 14:23:20;;;;;;;207.57;24.67;;;;;3.60;97798.00;;;;8280258;28;20726;-75
2023/12/18 14:27:24;;;;;;;150.07;21.30;;;;;3.60;97792.00;;;;8276774;28;20672;-75
2023/12/18 14:31:27;;;;;;;248.40;25.20;;;;;3.60;97792.00;;;;8283822;28;20823;-75
2023/12/18 14:35:31;;;;;;;239.47;25.83;;;;;3.50;97785.00;;;;8281477;28;20217;-75
2023/12/18 14:39:36;;;;;;;128.20;20.23;;;;;3.50;97793.00;;;;8277950;28;20221;-74
2023/12/18 14:43:39;;;;;;;171.10;19.00;;;;;3.30;97774.00;;;;8278162;28;20217;-74
2023/12/18 14:47:42;;;;;;;160.00;18.43;;;;;3.20;97776.00;;;;8276509;28;20247;-74
2023/12/18 14:51:46;;;;;;;148.93;20.23;;;;;3.10;97775.00;;;;8278430;28;20859;-74
2023/12/18 14:55:50;;;;;;;588.93;42.33;;;;;3.00;97783.00;;;;8279752;28;20592;-76
2023/12/18 14:59:56;;;;;;;208.53;24.40;;;;;3.00;97781.00;;;;8276220;28;20197;-74
2023/12/18 15:04:01;;;;;;;263.50;25.37;;;;;3.00;97782.00;;;;8279592;28;20237;-75
2023/12/18 15:08:17;;;;;;;349.77;27.60;;;;;3.00;97773.00;;;;8278260;28;20681;-75
2023/12/18 15:12:23;;;;;;;466.00;32.10;;;;;3.00;97768.00;;;;8276317;28;20974;-75
2023/12/18 15:16:26;;;;;;;352.90;28.73;;;;;3.00;97769.00;;;;8276972;28;20203;-75
2023/12/18 15:20:30;;;;;;;240.20;25.60;;;;;3.00;97768.00;;;;8274381;28;20295;-77
2023/12/18 15:24:34;;;;;;;376.47;30.80;;;;;3.00;97769.00;;;;8279357;28;20205;-76
2023/12/18 15:28:39;;;;;;;135.93;24.00;;;;;3.00;97768.00;;;;8281566;28;20260;-76
2023/12/18 15:32:42;;;;;;;214.33;25.77;;;;;2.90;97757.00;;;;8276147;28;20342;-77
2023/12/18 15:36:46;;;;;;;361.33;33.90;;;;;2.80;97754.00;;;;8273791;28;20209;-76
2023/12/18 15:40:49;;;;;;;433.50;30.53;;;;;2.70;97757.00;;;;8285625;28;20856;-77
2023/12/18 15:44:54;;;;;;;448.33;29.60;;;;;2.60;97749.00;;;;8285669;28;20670;-76
2023/12/18 15:48:57;;;;;;;1173.77;503.83;;;;;2.50;97746.00;;;;8281088;28;20304;-76
2023/12/18 15:53:01;;;;;;;1346.77;407.13;;;;;2.50;97754.00;;;;8271680;28;20228;-76
2023/12/18 15:57:05;;;;;;;360.80;56.27;;;;;2.50;97746.00;;;;8277506;28;20198;-76
2023/12/18 16:01:11;;;;;;;594.93;79.37;;;;;2.50;97734.00;;;;8277185;28;20236;-76
2023/12/18 16:05:15;;;;;;;564.73;45.37;;;;;2.50;97747.00;;;;8264226;28;20231;-76
2023/12/18 16:09:19;;;;;;;138.87;22.97;;;;;2.40;97738.00;;;;8269513;28;20203;-77
2023/12/18 16:13:22;;;;;;;474.87;43.80;;;;;2.40;97730.00;;;;8262546;28;20240;-76
2023/12/18 16:17:27;;;;;;;416.57;29.00;;;;;2.30;97726.00;;;;8255986;28;20214;-76
2023/12/18 16:21:31;;;;;;;334.43;27.87;;;;;2.30;97729.00;;;;8271284;28;20205;-76
2023/12/18 16:25:34;;;;;;;612.10;52.70;;;;;2.20;97715.00;;;;8269175;28;20202;-76
2023/12/18 16:29:39;;;;;;;410.67;25.77;;;;;2.10;97720.00;;;;8263628;28;20675;-76
2023/12/18 16:33:44;;;;;;;538.43;39.20;;;;;2.10;97724.00;;;;8268994;28;20425;-76
2023/12/18 16:37:47;;;;;;;495.00;32.07;;;;;2.10;97714.00;;;;8267033;28;20240;-76
2023/12/18 16:41:50;;;;;;;589.10;40.90;;;;;2.00;97702.00;;;;8269186;28;20233;-76
2023/12/18 16:45:53;;;;;;;500.93;30.27;;;;;2.00;97702.00;;;;8255348;28;20204;-77
2023/12/18 16:49:58;;;;;;;541.93;34.13;;;;;2.00;97704.00;;;;8239029;28;20311;-77
2023/12/18 16:54:02;;;;;;;474.70;31.63;;;;;2.00;97697.00;;;;8245622;28;20234;-82
2023/12/18 16:58:09;;;;;;;481.43;30.07;;;;;2.10;97696.00;;;;8249800;28;20236;-81
2023/12/18 17:02:12;;;;;;;334.20;26.97;;;;;2.00;97695.00;;;;8254609;28;20296;-81
2023/12/18 17:06:18;;;;;;;519.90;31.90;;;;;2.00;97691.00;;;;8281701;28;20229;-80
2023/12/18 17:10:22;;;;;;;460.07;31.40;;;;;1.90;97691.00;;;;8281190;28;20284;-79
2023/12/18 17:14:25;;;;;;;395.00;29.00;;;;;1.80;97695.00;;;;8283193;28;20244;-79
2023/12/18 17:18:29;;;;;;;405.83;29.60;;;;;1.80;97697.00;;;;8280753;28;20209;-79
2023/12/18 17:22:34;;;;;;;487.33;32.67;;;;;1.70;97693.00;;;;8280911;28;20199;-79
2023/12/18 17:26:38;;;;;;;415.43;36.67;;;;;1.60;97699.00;;;;8283768;28;20262;-78
2023/12/18 17:30:42;;;;;;;392.30;35.50;;;;;1.60;97685.00;;;;8280151;28;20203;-79
2023/12/18 17:34:46;;;;;;;331.73;42.73;;;;;1.60;97691.00;;;;8279701;28;20237;-80
2023/12/18 17:38:50;;;;;;;226.40;33.40;;;;;1.50;97689.00;;;;8287282;28;20547;-79
2023/12/18 17:42:54;;;;;;;386.40;76.77;;;;;1.50;97669.00;;;;8300945;28;20240;-79
2023/12/18 17:47:03;;;;;;;355.07;50.33;;;;;1.50;97680.00;;;;8300411;28;20697;-80
2023/12/18 17:51:14;;;;;;;269.43;29.23;;;;;1.40;97682.00;;;;8300134;28;20197;-80
2023/12/18 17:55:19;;;;;;;246.93;28.20;;;;;1.40;97680.00;;;;8300450;28;20614;-79
2023/12/18 17:59:22;;;;;;;171.47;25.03;;;;;1.40;97666.00;;;;8300435;28;20551;-79
2023/12/18 18:03:26;;;;;;;303.17;30.13;;;;;1.30;97657.00;;;;8301318;28;20235;-79
2023/12/18 18:07:29;;;;;;;467.13;33.53;;;;;1.30;97664.00;;;;8301194;28;20582;-79
2023/12/18 18:11:33;;;;;;;287.70;24.73;;;;;1.20;97664.00;;;;8299594;28;20196;-79
2023/12/18 18:15:37;;;;;;;179.10;22.93;;;;;1.20;97672.00;;;;8300632;28;20321;-80
2023/12/18 18:19:41;;;;;;;404.10;30.73;;;;;1.20;97673.00;;;;8299595;28;20237;-81
2023/12/18 18:23:45;;;;;;;484.77;32.33;;;;;1.10;97663.00;;;;8300417;28;20230;-80
2023/12/18 18:27:49;;;;;;;181.50;22.13;;;;;1.10;97660.00;;;;8300040;28;20231;-80
2023/12/18 18:31:52;;;;;;;363.63;28.93;;;;;1.10;97658.00;;;;8300373;28;20195;-80
2023/12/18 18:35:55;;;;;;;206.27;21.40;;;;;1.10;97651.00;;;;8299478;28;20318;-79
2023/12/18 18:39:59;;;;;;;150.67;19.10;;;;;1.10;97649.00;;;;8299970;28;20258;-79
2023/12/18 18:44:04;;;;;;;302.53;22.97;;;;;1.10;97647.00;;;;8300444;28;20254;-79
2023/12/18 18:48:11;;;;;;;332.13;24.73;;;;;1.10;97654.00;;;;8298080;28;20215;-79
2023/12/18 18:52:14;;;;;;;273.70;24.00;;;;;1.10;97650.00;;;;8298991;28;20220;-79
2023/12/18 18:56:17;;;;;;;268.37;24.67;;;;;1.10;97636.00;;;;8299174;28;20225;-79
2023/12/18 19:00:23;;;;;;;272.30;23.27;;;;;1.10;97631.00;;;;8300158;28;20694;-79
2023/12/18 19:04:26;;;;;;;357.07;30.13;;;;;1.00;97638.00;;;;8298931;28;20226;-79
2023/12/18 19:08:30;;;;;;;425.13;30.63;;;;;0.90;97645.00;;;;8298217;28;20287;-79
2023/12/18 19:12:37;;;;;;;205.33;19.87;;;;;0.80;97640.00;;;;8299530;28;20231;-79
2023/12/18 19:16:42;;;;;;;235.03;23.57;;;;;0.70;97633.00;;;;8300005;28;20633;-79
2023/12/18 19:20:45;;;;;;;282.13;26.90;;;;;0.50;97637.00;;;;8298424;28;20196;-79
2023/12/18 19:24:49;;;;;;;186.37;26.67;;;;;0.40;97623.00;;;;8298676;28;20195;-79
2023/12/18 19:28:53;;;;;;;289.33;27.47;;;;;0.40;97634.00;;;;8299333;28;20253;-78
2023/12/18 19:32:57;;;;;;;192.53;25.87;;;;;0.30;97624.00;;;;8297908;28;20271;-79
2023/12/18 19:37:00;;;;;;;58.80;18.43;;;;;0.30;97623.00;;;;8298745;28;20198;-79
2023/12/18 19:41:04;;;;;;;36.83;16.13;;;;;0.30;97624.00;;;;8298273;28;20282;-79
2023/12/18 19:45:08;;;;;;;35.40;14.97;;;;;0.20;97631.00;;;;8298456;28;20203;-80
2023/12/18 19:49:15;;;;;;;33.60;16.17;;;;;0.20;97616.00;;;;8298111;28;20284;-79
2023/12/18 19:53:22;;;;;;;37.50;16.87;;;;;0.20;97621.00;;;;8297851;28;20212;-79
2023/12/18 19:57:26;;;;;;;37.20;16.33;;;;;0.20;97618.00;;;;8298788;28;20202;-79